createdAt,value
2022-12-14T00:02:21.139Z,-6.90
2022-12-14T00:04:47.920Z,-6.90
2022-12-14T00:07:26.964Z,-6.70
2022-12-14T00:10:25.918Z,-7.30
2022-12-14T00:12:52.782Z,-6.80
2022-12-14T00:15:29.633Z,-7.00
2022-12-14T00:17:56.713Z,-6.90
2022-12-14T00:20:23.893Z,-7.10
2022-12-14T00:22:50.824Z,-7.00
2022-12-14T00:25:17.585Z,-6.50
2022-12-14T00:27:44.765Z,-7.30
2022-12-14T00:30:12.929Z,-7.20
2022-12-14T00:32:39.865Z,-7.30
2022-12-14T00:35:07.646Z,-7.50
2022-12-14T00:37:34.387Z,-7.40
2022-12-14T00:40:01.469Z,-7.40
2022-12-14T00:42:28.255Z,-7.60
2022-12-14T00:44:54.996Z,-7.60
2022-12-14T00:47:23.861Z,-7.50
2022-12-14T00:49:50.575Z,-7.50
2022-12-14T00:52:17.324Z,-7.60
2022-12-14T00:54:43.982Z,-7.80
2022-12-14T00:57:10.843Z,-7.60
2022-12-14T00:59:37.568Z,-9.00
2022-12-14T01:02:04.492Z,-7.80
2022-12-14T01:04:31.295Z,-8.20
2022-12-14T01:06:58.021Z,-8.10
2022-12-14T01:09:26.055Z,-7.70
2022-12-14T01:11:53.515Z,-7.80
2022-12-14T01:14:20.985Z,-7.60
2022-12-14T01:16:47.824Z,-7.50
2022-12-14T01:19:15.007Z,-7.60
2022-12-14T01:21:42.052Z,-7.50
2022-12-14T01:24:08.941Z,-7.50
2022-12-14T01:26:41.331Z,-7.50
2022-12-14T01:29:08.082Z,-7.60
2022-12-14T01:31:36.517Z,-7.50
2022-12-14T01:34:03.547Z,-7.50
2022-12-14T01:36:31.651Z,-7.40
2022-12-14T01:38:59.504Z,-7.50
2022-12-14T01:41:30.570Z,-7.70
2022-12-14T01:43:57.450Z,-7.30
2022-12-14T01:46:26.932Z,-7.70
2022-12-14T01:48:56.190Z,-7.90
2022-12-14T01:51:24.249Z,-8.00
2022-12-14T01:53:51.014Z,-7.90
2022-12-14T01:56:18.006Z,-8.10
2022-12-14T01:58:44.716Z,-7.90
2022-12-14T02:01:11.776Z,-8.00
2022-12-14T02:03:40.727Z,-7.90
2022-12-14T02:06:09.627Z,-8.00
2022-12-14T02:08:37.445Z,-8.00
2022-12-14T02:11:04.256Z,-8.10
2022-12-14T02:13:41.375Z,-7.90
2022-12-14T02:16:08.269Z,-7.10
2022-12-14T02:18:35.127Z,-8.10
2022-12-14T02:21:01.908Z,-7.90
2022-12-14T02:23:48.394Z,-7.90
2022-12-14T02:26:33.877Z,-7.60
2022-12-14T02:29:18.885Z,-8.60
2022-12-14T02:31:45.869Z,-7.70
2022-12-14T02:34:15.667Z,-8.10
2022-12-14T02:36:46.026Z,-8.30
2022-12-14T02:39:18.844Z,-8.40
2022-12-14T02:42:05.406Z,-7.80
2022-12-14T02:44:56.977Z,-7.60
2022-12-14T02:47:26.435Z,-8.10
2022-12-14T02:50:19.432Z,-8.40
2022-12-14T02:52:58.365Z,-8.10
2022-12-14T02:55:34.090Z,-8.10
2022-12-14T02:58:05.797Z,-8.20
2022-12-14T03:00:33.713Z,-8.20
2022-12-14T03:03:00.916Z,-8.40
2022-12-14T03:05:28.397Z,-8.50
2022-12-14T03:07:59.635Z,-8.20
2022-12-14T03:10:32.450Z,-7.70
2022-12-14T03:13:18.616Z,-7.90
2022-12-14T03:15:47.277Z,-8.40
2022-12-14T03:18:16.368Z,-8.50
2022-12-14T03:20:44.592Z,-8.40
2022-12-14T03:23:13.163Z,-8.70
2022-12-14T03:25:48.858Z,-8.70
2022-12-14T03:28:21.900Z,-8.40
2022-12-14T03:31:00.927Z,-8.90
2022-12-14T03:33:30.088Z,-8.90
2022-12-14T03:36:03.832Z,-9.00
2022-12-14T03:38:35.486Z,-8.50
2022-12-14T03:41:08.324Z,-9.10
2022-12-14T03:43:44.102Z,-8.60
2022-12-14T03:46:32.234Z,-8.70
2022-12-14T03:49:03.793Z,-8.80
2022-12-14T03:51:40.851Z,-9.10
2022-12-14T03:54:15.270Z,-9.00
2022-12-14T03:56:51.249Z,-9.10
2022-12-14T03:59:25.851Z,-9.20
2022-12-14T04:01:55.779Z,-8.40
2022-12-14T04:04:27.648Z,-8.60
2022-12-14T04:06:54.339Z,-9.10
2022-12-14T04:09:30.408Z,-9.00
2022-12-14T04:12:18.819Z,-8.20
2022-12-14T04:15:25.648Z,-8.80
2022-12-14T04:18:12.894Z,-9.40
2022-12-14T04:20:43.193Z,-9.30
2022-12-14T04:23:12.044Z,-9.30
2022-12-14T04:26:00.082Z,-9.30
2022-12-14T04:28:50.137Z,-9.30
2022-12-14T04:31:19.384Z,-9.20
2022-12-14T04:33:49.987Z,-9.30
2022-12-14T04:36:29.447Z,-9.20
2022-12-14T04:39:06.982Z,-8.90
2022-12-14T04:41:40.426Z,-8.90
2022-12-14T04:44:13.884Z,-9.30
2022-12-14T04:46:41.121Z,-9.10
2022-12-14T04:49:17.060Z,-9.60
2022-12-14T04:51:58.222Z,-8.80
2022-12-14T04:54:41.525Z,-9.30
2022-12-14T04:57:19.553Z,-9.20
2022-12-14T04:59:46.713Z,-8.30
2022-12-14T05:02:22.770Z,-9.60
2022-12-14T05:04:59.556Z,-8.60
2022-12-14T05:07:52.541Z,-9.00
2022-12-14T05:10:25.648Z,-8.60
2022-12-14T05:12:55.383Z,-9.30
2022-12-14T05:15:24.958Z,-8.90
2022-12-14T05:17:52.237Z,-9.10
2022-12-14T05:20:21.079Z,-9.90
2022-12-14T05:22:49.325Z,-9.10
2022-12-14T05:25:16.739Z,-8.60
2022-12-14T05:27:43.531Z,-9.10
2022-12-14T05:30:10.644Z,-9.10
2022-12-14T05:32:37.324Z,-10.10
2022-12-14T05:35:04.700Z,-10.00
2022-12-14T05:37:31.371Z,-9.60
2022-12-14T05:39:58.115Z,-9.30
2022-12-14T05:42:24.935Z,-9.30
2022-12-14T05:44:51.682Z,-9.30
2022-12-14T05:47:18.402Z,-9.30
2022-12-14T05:49:45.078Z,-9.30
2022-12-14T05:52:11.994Z,-9.30
2022-12-14T05:54:38.704Z,-9.40
2022-12-14T05:57:06.910Z,-9.10
2022-12-14T05:59:33.768Z,-9.40
2022-12-14T06:02:00.519Z,-10.30
2022-12-14T06:04:28.395Z,-9.40
2022-12-14T06:06:55.139Z,-9.50
2022-12-14T06:09:22.827Z,-9.30
2022-12-14T06:11:50.181Z,-9.70
2022-12-14T06:14:17.420Z,-9.60
2022-12-14T06:16:45.341Z,-9.60
2022-12-14T06:19:12.955Z,-9.70
2022-12-14T06:21:41.010Z,-9.70
2022-12-14T06:24:08.188Z,-9.50
2022-12-14T06:26:40.931Z,-9.40
2022-12-14T06:29:08.722Z,-9.70
2022-12-14T06:31:35.518Z,-9.70
2022-12-14T06:34:03.093Z,-9.80
2022-12-14T06:36:31.047Z,-10.60
2022-12-14T06:39:00.101Z,-9.70
2022-12-14T06:41:26.830Z,-9.70
2022-12-14T06:43:53.901Z,-9.50
2022-12-14T06:46:21.954Z,-9.50
2022-12-14T06:48:53.083Z,-9.70
2022-12-14T06:51:20.603Z,-9.50
2022-12-14T06:53:50.059Z,-9.50
2022-12-14T06:56:17.671Z,-9.40
2022-12-14T06:58:53.338Z,-9.40
2022-12-14T07:01:21.174Z,-9.30
2022-12-14T07:03:49.275Z,-9.50
2022-12-14T07:06:16.278Z,-9.40
2022-12-14T07:08:43.172Z,-7.10
2022-12-14T07:11:13.845Z,-9.70
2022-12-14T07:13:40.911Z,-9.00
2022-12-14T07:16:08.465Z,-9.20
2022-12-14T07:18:35.259Z,-9.80
2022-12-14T07:21:03.337Z,-9.40
2022-12-14T07:23:31.502Z,-9.30
2022-12-14T07:26:02.446Z,-9.30
2022-12-14T07:28:35.512Z,-9.10
2022-12-14T07:31:13.523Z,-8.90
2022-12-14T07:33:40.783Z,-9.10
2022-12-14T07:36:07.809Z,-9.70
2022-12-14T07:38:38.074Z,-8.90
2022-12-14T07:41:04.858Z,-8.90
2022-12-14T07:43:33.280Z,-8.80
2022-12-14T07:46:01.457Z,-8.60
2022-12-14T07:48:28.337Z,-8.70
2022-12-14T07:50:55.104Z,-8.90
2022-12-14T07:53:21.868Z,-8.40
2022-12-14T07:55:48.511Z,-8.50
2022-12-14T07:58:15.830Z,-8.70
2022-12-14T08:00:42.449Z,-8.20
2022-12-14T08:03:09.123Z,-8.30
2022-12-14T08:05:40.633Z,-8.00
2022-12-14T08:08:07.697Z,-7.40
2022-12-14T08:10:40.183Z,-8.20
2022-12-14T08:13:07.292Z,-8.00
2022-12-14T08:15:36.813Z,-8.00
2022-12-14T08:18:03.650Z,-8.00
2022-12-14T08:20:30.549Z,-8.00
2022-12-14T08:22:57.243Z,-8.00
2022-12-14T08:25:23.927Z,-7.90
2022-12-14T08:27:50.772Z,-7.90
2022-12-14T08:30:17.430Z,-7.90
2022-12-14T08:32:44.157Z,-7.70
2022-12-14T08:35:10.957Z,-7.70
2022-12-14T08:37:39.611Z,-7.90
2022-12-14T08:40:09.968Z,-7.70
2022-12-14T08:42:37.034Z,-7.50
2022-12-14T08:45:03.882Z,-7.50
2022-12-14T08:47:30.588Z,-7.60
2022-12-14T08:49:57.264Z,-5.90
2022-12-14T08:52:23.894Z,-7.30
2022-12-14T08:54:50.699Z,-7.40
2022-12-14T08:57:17.393Z,-7.20
2022-12-14T09:00:01.137Z,-6.80
2022-12-14T09:02:28.437Z,-7.20
2022-12-14T09:04:55.243Z,-7.60
2022-12-14T09:07:22.001Z,-7.00
2022-12-14T09:09:48.767Z,-5.80
2022-12-14T09:12:15.435Z,-7.50
2022-12-14T09:14:46.477Z,-6.20
2022-12-14T09:17:16.450Z,-7.20
2022-12-14T09:19:43.072Z,-7.30
2022-12-14T09:22:10.292Z,-7.30
2022-12-14T09:24:36.960Z,-5.80
2022-12-14T09:27:04.029Z,-7.50
2022-12-14T09:29:30.815Z,-7.40
2022-12-14T09:31:57.576Z,-7.50
2022-12-14T09:34:25.324Z,-7.50
2022-12-14T09:36:53.191Z,-7.30
2022-12-14T09:39:19.906Z,-7.40
2022-12-14T09:41:59.191Z,-7.30
2022-12-14T09:44:30.663Z,-7.60
2022-12-14T09:46:57.458Z,-7.20
2022-12-14T09:49:26.452Z,-7.50
2022-12-14T09:51:54.658Z,-7.60
2022-12-14T09:54:24.619Z,-7.40
2022-12-14T09:56:51.738Z,-7.40
2022-12-14T09:59:21.070Z,-7.80
2022-12-14T10:02:29.238Z,-6.40
2022-12-14T10:04:57.564Z,-3.90
2022-12-14T10:07:34.190Z,-2.30
2022-12-14T10:10:04.602Z,-0.30
2022-12-14T10:12:34.714Z,0.50
2022-12-14T10:15:07.605Z,2.00
2022-12-14T10:17:46.474Z,1.80
2022-12-14T10:20:20.456Z,3.50
2022-12-14T10:22:49.529Z,4.60
2022-12-14T10:25:29.687Z,6.90
2022-12-14T10:28:14.580Z,4.40
2022-12-14T10:30:42.159Z,4.80
2022-12-14T10:33:17.084Z,5.70
2022-12-14T10:35:43.728Z,6.50
2022-12-14T10:38:22.701Z,5.80
2022-12-14T10:40:57.981Z,6.20
2022-12-14T10:43:36.978Z,7.40
2022-12-14T10:46:13.424Z,7.80
2022-12-14T10:48:45.295Z,8.40
2022-12-14T10:51:18.293Z,8.40
2022-12-14T10:53:49.031Z,9.40
2022-12-14T10:56:19.146Z,8.60
2022-12-14T10:59:06.568Z,9.40
2022-12-14T11:01:39.059Z,9.70
2022-12-14T11:04:09.823Z,10.30
2022-12-14T11:06:37.048Z,11.10
2022-12-14T11:09:22.073Z,11.50
2022-12-14T11:11:57.098Z,11.20
2022-12-14T11:14:25.957Z,9.30
2022-12-14T11:16:55.424Z,8.30
2022-12-14T11:19:23.623Z,10.00
2022-12-14T11:21:51.862Z,11.20
2022-12-14T11:24:23.485Z,12.40
2022-12-14T11:26:51.682Z,11.80
2022-12-14T11:29:21.583Z,12.00
2022-12-14T11:31:55.338Z,12.50
2022-12-14T11:36:50.050Z,13.70
2022-12-14T11:39:24.313Z,14.00
2022-12-14T11:41:59.495Z,13.70
2022-12-14T11:44:27.193Z,13.60
2022-12-14T11:47:21.335Z,13.50
2022-12-14T11:49:46.155Z,13.30
2022-12-14T11:52:12.892Z,13.80
2022-12-14T11:54:50.434Z,14.70
2022-12-14T11:57:25.886Z,13.40
2022-12-14T12:00:00.310Z,14.10
2022-12-14T12:02:33.224Z,14.90
2022-12-14T12:05:04.753Z,14.10
2022-12-14T12:07:32.170Z,13.60
2022-12-14T12:10:04.868Z,14.10
2022-12-14T12:19:18.760Z,14.60
2022-12-14T12:25:30.744Z,14.70
2022-12-14T12:34:10.118Z,15.50
2022-12-14T12:36:39.606Z,14.40
2022-12-14T12:39:19.528Z,14.90
2022-12-14T12:42:05.546Z,15.60
2022-12-14T12:44:35.497Z,16.20
2022-12-14T12:47:32.358Z,14.40
2022-12-14T12:50:14.322Z,14.60
2022-12-14T12:52:50.110Z,14.70
2022-12-14T12:55:22.375Z,14.20
2022-12-14T12:57:52.318Z,14.30
2022-12-14T13:00:20.364Z,14.30
2022-12-14T13:02:54.679Z,14.50
2022-12-14T13:05:46.117Z,15.50
2022-12-14T13:08:31.689Z,14.60
2022-12-14T13:13:57.209Z,14.40
2022-12-14T13:16:28.307Z,14.10
2022-12-14T13:19:08.762Z,14.10
2022-12-14T13:22:12.092Z,14.10
2022-12-14T13:24:43.210Z,14.00
2022-12-14T13:27:25.447Z,13.00
2022-12-14T13:29:52.425Z,13.00
2022-12-14T13:32:32.308Z,12.60
2022-12-14T13:35:03.827Z,13.00
2022-12-14T13:37:36.835Z,12.50
2022-12-14T13:40:10.000Z,12.60
2022-12-14T13:43:01.114Z,12.60
2022-12-14T13:45:39.887Z,13.30
2022-12-14T13:58:44.810Z,10.80
2022-12-14T14:01:18.714Z,11.90
2022-12-14T14:03:47.564Z,11.80
2022-12-14T14:06:35.257Z,11.50
2022-12-14T14:09:21.350Z,11.40
2022-12-14T14:12:00.943Z,10.80
2022-12-14T14:14:47.068Z,11.30
2022-12-14T14:17:47.103Z,10.70
2022-12-14T14:20:33.019Z,10.20
2022-12-14T14:23:21.745Z,10.10
2022-12-14T14:26:14.396Z,10.70
2022-12-14T14:28:41.466Z,10.40
2022-12-14T14:31:08.572Z,9.60
2022-12-14T14:33:45.489Z,9.40
2022-12-14T14:36:20.099Z,9.20
2022-12-14T14:38:50.003Z,9.20
2022-12-14T14:41:51.989Z,8.70
2022-12-14T14:44:26.421Z,8.30
2022-12-14T14:46:53.511Z,8.00
2022-12-14T14:49:36.260Z,7.60
2022-12-14T14:52:21.852Z,6.00
2022-12-14T14:57:59.935Z,4.30
2022-12-14T15:00:28.220Z,2.80
2022-12-14T15:02:58.525Z,3.10
2022-12-14T15:05:47.272Z,1.20
2022-12-14T15:08:21.494Z,0.80
2022-12-14T15:10:48.559Z,0.50
2022-12-14T15:13:15.384Z,0.10
2022-12-14T15:15:51.331Z,-0.30
2022-12-14T15:18:24.315Z,-0.40
2022-12-14T15:21:02.224Z,-1.40
2022-12-14T15:23:35.678Z,-1.60
2022-12-14T15:26:05.832Z,-2.20
2022-12-14T15:28:32.691Z,-2.40
2022-12-14T15:31:00.255Z,-2.10
2022-12-14T15:33:29.830Z,-2.60
2022-12-14T15:36:06.622Z,-3.00
2022-12-14T15:38:37.101Z,-2.10
2022-12-14T15:41:14.482Z,-3.20
2022-12-14T15:43:49.211Z,-3.00
2022-12-14T15:46:19.189Z,-2.60
2022-12-14T15:48:46.346Z,-3.40
2022-12-14T15:51:15.445Z,-3.50
2022-12-14T15:53:49.794Z,-3.90
2022-12-14T15:56:16.833Z,-3.50
2022-12-14T15:58:44.367Z,-4.10
2022-12-14T16:01:31.852Z,-4.10
2022-12-14T16:04:11.626Z,-4.30
2022-12-14T16:07:09.523Z,-4.50
2022-12-14T16:10:10.238Z,-4.50
2022-12-14T16:12:45.087Z,-4.70
2022-12-14T16:15:20.331Z,-4.90
2022-12-14T18:47:40.735Z,-5.10
2022-12-14T18:50:03.197Z,-5.30
2022-12-14T18:52:30.137Z,-5.20
2022-12-14T18:54:57.211Z,-5.10
2022-12-14T18:57:24.374Z,-5.00
2022-12-14T18:59:51.344Z,-5.10
2022-12-14T19:02:19.446Z,-5.10
2022-12-14T19:04:49.783Z,-5.30
2022-12-14T19:07:16.868Z,-4.70
2022-12-14T19:09:43.825Z,-5.30
2022-12-14T19:12:14.420Z,-5.20
2022-12-14T19:14:44.332Z,-5.40
2022-12-14T19:17:17.025Z,-5.30
2022-12-14T19:19:44.664Z,-5.40
2022-12-14T19:22:11.846Z,-5.10
2022-12-14T19:24:38.702Z,-5.70
2022-12-14T19:30:35.932Z,-5.40
2022-12-14T19:33:02.954Z,-5.30
2022-12-14T19:35:33.239Z,-5.60
2022-12-14T19:38:02.318Z,-5.50
2022-12-14T19:40:29.228Z,-5.50
2022-12-14T19:42:58.363Z,-5.40
2022-12-14T19:45:26.708Z,-5.20
2022-12-14T19:47:53.786Z,-5.50
2022-12-14T19:50:20.676Z,-5.70
2022-12-14T19:52:47.506Z,-5.50
2022-12-14T19:55:14.376Z,-5.50
2022-12-14T19:57:41.206Z,-6.00
2022-12-14T20:00:08.489Z,-5.70
2022-12-14T20:02:35.574Z,-5.30
2022-12-14T20:05:02.499Z,-5.90
2022-12-14T20:07:29.456Z,-5.70
2022-12-14T20:09:56.275Z,-5.70
2022-12-14T20:12:23.103Z,-5.70
2022-12-14T20:14:50.049Z,-5.20
2022-12-14T20:17:17.011Z,-5.50
2022-12-14T20:19:43.909Z,-5.50
2022-12-14T20:22:10.737Z,-5.50
2022-12-14T20:24:38.401Z,-5.70
2022-12-14T20:27:05.201Z,-5.60
2022-12-14T20:29:32.039Z,-5.70
2022-12-14T20:31:59.048Z,-5.90
2022-12-14T20:34:26.162Z,-6.30
2022-12-14T20:36:55.187Z,-6.10
2022-12-14T20:39:21.963Z,-6.40
2022-12-14T20:41:49.622Z,-6.20
2022-12-14T20:44:16.462Z,-6.40
2022-12-14T20:46:45.276Z,-6.60
2022-12-14T20:49:13.966Z,-6.00
2022-12-14T20:51:41.274Z,-6.10
2022-12-14T20:54:09.112Z,-6.00
2022-12-14T20:56:36.076Z,-6.10
2022-12-14T20:59:02.928Z,-6.10
2022-12-14T21:01:29.905Z,-6.40
2022-12-14T21:03:59.828Z,-6.10
2022-12-14T21:06:26.675Z,-5.90
2022-12-14T21:09:04.989Z,-6.30
2022-12-14T21:11:51.099Z,-6.10
2022-12-14T21:14:18.619Z,-6.40
2022-12-14T21:16:45.458Z,-6.30
2022-12-14T21:19:12.362Z,-6.50
2022-12-14T21:21:40.046Z,-6.60
2022-12-14T21:24:12.805Z,-6.70
2022-12-14T21:26:44.875Z,-6.40
2022-12-14T21:29:16.151Z,-6.70
2022-12-14T21:31:44.131Z,-6.60
2022-12-14T21:34:13.537Z,-6.60
2022-12-14T21:36:40.439Z,-6.70
2022-12-14T21:39:07.324Z,-6.60
2022-12-14T21:41:53.926Z,-6.50
2022-12-14T21:44:20.928Z,-6.50
2022-12-14T21:46:48.126Z,-6.20
2022-12-14T21:49:15.182Z,-7.00
2022-12-14T21:51:42.201Z,-6.40
2022-12-14T21:54:13.835Z,-6.30
2022-12-14T21:56:59.349Z,-6.50
2022-12-14T21:59:30.370Z,-6.40
2022-12-14T22:01:58.630Z,-6.60
2022-12-14T22:04:28.757Z,-6.70
2022-12-14T22:06:55.634Z,-6.50
2022-12-14T22:09:22.661Z,-6.60
2022-12-14T22:11:49.940Z,-6.40
2022-12-14T22:14:18.092Z,-6.30
2022-12-14T22:16:45.438Z,-6.50
2022-12-14T22:19:13.629Z,-6.50
2022-12-14T22:21:40.586Z,-6.60
2022-12-14T22:24:07.756Z,-6.70
2022-12-14T22:26:35.230Z,-6.90
2022-12-14T22:29:02.057Z,-7.60
2022-12-14T22:31:29.056Z,-7.20
2022-12-14T22:33:55.940Z,-7.30
2022-12-14T22:36:23.242Z,-7.70
2022-12-14T22:38:50.047Z,-7.40
2022-12-14T22:41:17.387Z,-7.70
2022-12-14T22:43:44.871Z,-7.20
2022-12-14T22:46:12.977Z,-7.80
2022-12-14T22:48:39.888Z,-8.00
2022-12-14T22:51:12.174Z,-8.30
2022-12-14T22:53:39.166Z,-8.50
2022-12-14T22:56:24.809Z,-8.50
2022-12-14T22:58:57.497Z,-8.20
2022-12-14T23:01:24.532Z,-8.80
2022-12-14T23:03:52.278Z,-8.80
2022-12-14T23:06:19.276Z,-8.70
2022-12-14T23:09:05.792Z,-8.80
2022-12-14T23:11:54.382Z,-8.90
2022-12-14T23:14:40.102Z,-8.70
2022-12-14T23:17:25.649Z,-8.90
2022-12-14T23:20:13.682Z,-8.70
2022-12-14T23:26:14.764Z,-8.00
2022-12-14T23:29:22.708Z,-8.10
2022-12-14T23:32:08.176Z,-8.20
2022-12-14T23:34:53.759Z,-8.50
2022-12-14T23:37:39.309Z,-8.60
2022-12-14T23:40:24.918Z,-8.50
2022-12-14T23:43:10.532Z,-8.20
2022-12-14T23:45:59.861Z,-7.90
2022-12-14T23:48:45.485Z,-7.50
2022-12-14T23:51:31.002Z,-7.70
2022-12-14T23:54:16.492Z,-7.60
2022-12-14T23:57:02.237Z,-8.00
2022-12-14T23:59:49.523Z,-8.30
